createdAt,value
2023-03-31T00:03:29.615Z,94.46
2023-03-31T00:08:35.540Z,94.35
2023-03-31T00:13:38.345Z,94.20
2023-03-31T00:18:47.172Z,93.46
2023-03-31T00:23:48.658Z,93.80
2023-03-31T00:28:50.442Z,94.06
2023-03-31T00:33:51.960Z,94.14
2023-03-31T00:39:08.687Z,93.86
2023-03-31T00:44:18.803Z,93.48
2023-03-31T00:49:27.042Z,93.29
2023-03-31T00:54:32.716Z,92.91
2023-03-31T00:59:38.587Z,92.92
2023-03-31T01:04:46.070Z,92.12
2023-03-31T01:09:48.561Z,92.42
2023-03-31T01:14:51.021Z,92.63
2023-03-31T01:20:21.242Z,92.60
2023-03-31T01:26:01.320Z,91.69
2023-03-31T01:31:27.513Z,91.76
2023-03-31T01:37:01.370Z,92.04
2023-03-31T01:42:18.539Z,91.59
2023-03-31T01:47:25.675Z,92.42
2023-03-31T01:52:48.330Z,92.50
2023-03-31T01:57:57.689Z,92.68
2023-03-31T02:03:24.143Z,92.32
2023-03-31T02:08:31.809Z,92.13
2023-03-31T02:13:37.110Z,92.74
2023-03-31T02:18:41.642Z,92.15
2023-03-31T02:23:45.650Z,92.35
2023-03-31T02:28:47.389Z,92.16
2023-03-31T02:33:49.596Z,92.65
2023-03-31T02:38:59.527Z,92.45
2023-03-31T02:44:02.479Z,92.10
2023-03-31T02:49:08.079Z,92.46
2023-03-31T02:54:28.609Z,92.79
2023-03-31T02:59:44.972Z,92.64
2023-03-31T03:05:18.701Z,92.62
2023-03-31T03:10:41.388Z,91.83
2023-03-31T03:15:49.776Z,92.12
2023-03-31T03:20:51.321Z,92.45
2023-03-31T03:25:52.771Z,92.42
2023-03-31T03:30:54.240Z,91.95
2023-03-31T03:35:55.775Z,92.28
2023-03-31T03:40:57.199Z,92.63
2023-03-31T03:45:58.683Z,92.76
2023-03-31T03:51:01.327Z,93.65
2023-03-31T03:56:02.932Z,93.90
2023-03-31T04:01:04.487Z,93.47
2023-03-31T04:06:06.345Z,93.60
2023-03-31T04:11:16.649Z,93.25
2023-03-31T04:16:19.906Z,93.42
2023-03-31T04:21:23.977Z,93.23
2023-03-31T04:26:38.703Z,93.67
2023-03-31T04:31:44.365Z,93.25
2023-03-31T04:36:52.137Z,93.12
2023-03-31T04:41:54.057Z,93.14
2023-03-31T04:46:56.126Z,93.59
2023-03-31T04:51:57.517Z,93.50
2023-03-31T04:56:58.959Z,93.76
2023-03-31T05:02:00.533Z,93.16
2023-03-31T05:07:01.940Z,93.35
2023-03-31T05:12:03.611Z,93.09
2023-03-31T05:17:05.247Z,93.23
2023-03-31T05:22:06.653Z,92.86
2023-03-31T05:27:08.146Z,93.70
2023-03-31T05:32:09.876Z,93.51
2023-03-31T05:37:11.461Z,93.65
2023-03-31T05:42:12.966Z,93.98
2023-03-31T05:47:15.184Z,93.82
2023-03-31T05:52:17.654Z,94.08
2023-03-31T05:57:19.207Z,94.32
2023-03-31T06:02:20.793Z,94.23
2023-03-31T06:07:24.909Z,94.18
2023-03-31T06:12:26.339Z,94.51
2023-03-31T06:17:27.937Z,94.56
2023-03-31T06:22:29.465Z,94.27
2023-03-31T06:27:31.218Z,94.34
2023-03-31T06:32:32.998Z,95.19
2023-03-31T06:37:34.521Z,95.77
2023-03-31T06:42:36.062Z,95.88
2023-03-31T06:47:41.436Z,95.79
2023-03-31T06:52:43.076Z,95.68
2023-03-31T06:57:44.497Z,95.59
2023-03-31T07:02:46.026Z,94.86
2023-03-31T07:07:47.447Z,95.23
2023-03-31T07:12:49.648Z,94.19
2023-03-31T07:17:53.942Z,94.80
2023-03-31T07:22:55.547Z,94.60
2023-03-31T07:27:57.021Z,94.78
2023-03-31T07:32:59.343Z,95.09
2023-03-31T07:38:00.877Z,94.76
2023-03-31T07:43:02.532Z,93.50
2023-03-31T07:48:04.222Z,93.09
2023-03-31T07:53:05.746Z,92.83
2023-03-31T07:58:07.990Z,91.84
2023-03-31T08:03:09.489Z,91.20
2023-03-31T08:08:11.005Z,91.05
2023-03-31T08:13:12.847Z,90.60
2023-03-31T08:18:15.649Z,91.24
2023-03-31T08:23:17.123Z,90.93
2023-03-31T08:28:18.603Z,90.85
2023-03-31T08:33:20.033Z,91.42
2023-03-31T08:38:21.441Z,90.87
2023-03-31T08:43:30.188Z,89.65
2023-03-31T08:48:44.934Z,89.51
2023-03-31T08:54:05.596Z,90.18
2023-03-31T08:59:27.922Z,89.90
2023-03-31T09:04:41.534Z,90.62
2023-03-31T09:09:52.267Z,90.73
2023-03-31T09:15:08.972Z,91.27
2023-03-31T09:20:21.012Z,90.87
2023-03-31T09:25:22.600Z,91.09
2023-03-31T09:30:29.559Z,90.83
2023-03-31T09:35:33.521Z,91.00
2023-03-31T09:40:35.400Z,90.82
2023-03-31T09:45:37.078Z,91.56
2023-03-31T09:50:57.561Z,90.59
2023-03-31T09:56:06.163Z,89.93
2023-03-31T10:01:10.880Z,90.23
2023-03-31T10:06:15.993Z,90.31
2023-03-31T10:11:18.420Z,89.95
2023-03-31T10:17:04.862Z,91.04
2023-03-31T10:22:32.847Z,90.76
2023-03-31T10:27:56.490Z,90.38
2023-03-31T10:33:44.393Z,90.06
2023-03-31T10:46:57.345Z,90.39
2023-03-31T10:58:54.726Z,91.27
2023-03-31T11:04:37.041Z,90.32
2023-03-31T11:09:49.348Z,90.01
2023-03-31T11:16:01.782Z,90.45
2023-03-31T11:21:29.775Z,90.94
2023-03-31T11:27:10.125Z,90.79
2023-03-31T11:32:49.812Z,91.43
2023-03-31T11:38:17.159Z,91.36
2023-03-31T11:43:29.971Z,91.51
2023-03-31T11:48:51.521Z,91.48
2023-03-31T11:53:56.126Z,91.70
2023-03-31T11:58:59.853Z,91.80
2023-03-31T12:51:40.890Z,92.52
2023-03-31T12:57:01.094Z,92.85
2023-03-31T13:02:24.885Z,92.72
2023-03-31T13:07:29.114Z,92.74
2023-03-31T13:12:33.036Z,92.86
2023-03-31T13:17:38.692Z,92.46
2023-03-31T13:22:48.611Z,93.15
2023-03-31T13:27:53.535Z,94.34
2023-03-31T13:33:25.290Z,93.12
2023-03-31T13:38:44.963Z,90.42
2023-03-31T13:44:06.701Z,89.75
2023-03-31T13:55:38.956Z,89.45
2023-03-31T14:01:12.877Z,88.84
2023-03-31T14:06:27.652Z,89.35
2023-03-31T14:11:31.552Z,90.65
2023-03-31T14:16:38.079Z,91.03
2023-03-31T14:21:53.271Z,90.60
2023-03-31T14:27:00.952Z,90.73
2023-03-31T14:32:31.790Z,88.48
2023-03-31T14:37:34.222Z,88.32
2023-03-31T14:42:40.280Z,88.42
2023-03-31T14:47:41.766Z,89.78
2023-03-31T14:52:52.201Z,90.39
2023-03-31T14:57:55.933Z,90.17
2023-03-31T15:02:59.501Z,90.39
2023-03-31T15:08:07.262Z,90.27
2023-03-31T15:13:11.339Z,90.87
2023-03-31T15:18:14.627Z,91.17
2023-03-31T15:23:24.468Z,91.13
2023-03-31T15:28:33.778Z,91.57
2023-03-31T15:33:41.085Z,92.00
2023-03-31T15:38:43.208Z,91.75
2023-03-31T15:43:52.668Z,91.41
2023-03-31T15:48:55.351Z,92.42
2023-03-31T15:53:56.809Z,90.18
2023-03-31T15:58:58.280Z,87.14
2023-03-31T16:04:02.504Z,83.55
2023-03-31T16:09:17.434Z,81.05
2023-03-31T16:14:45.983Z,82.09
2023-03-31T16:19:59.005Z,81.93
2023-03-31T16:25:00.526Z,82.40
2023-03-31T16:30:17.597Z,85.13
2023-03-31T16:35:19.022Z,88.46
2023-03-31T16:40:20.827Z,92.36
2023-03-31T16:45:22.297Z,93.97
2023-03-31T16:50:23.729Z,93.46
2023-03-31T16:55:25.719Z,94.03
2023-03-31T17:00:28.423Z,94.49
2023-03-31T17:05:31.754Z,94.06
2023-03-31T17:10:33.518Z,93.73
2023-03-31T17:15:36.414Z,93.57
2023-03-31T17:20:38.616Z,93.89
2023-03-31T17:25:48.576Z,93.29
2023-03-31T17:30:50.709Z,93.67
2023-03-31T17:35:56.518Z,93.34
2023-03-31T17:41:03.886Z,93.58
2023-03-31T17:46:09.915Z,93.38
2023-03-31T17:51:15.413Z,93.45
2023-03-31T17:56:17.704Z,94.14
2023-03-31T18:01:19.356Z,95.06
2023-03-31T18:06:20.883Z,95.62
2023-03-31T18:11:23.024Z,95.17
2023-03-31T18:16:24.703Z,95.14
2023-03-31T18:21:26.953Z,94.06
2023-03-31T18:26:28.773Z,94.41
2023-03-31T18:31:30.266Z,94.65
2023-03-31T18:36:32.348Z,95.61
2023-03-31T18:41:37.059Z,95.56
2023-03-31T18:46:38.788Z,96.13
2023-03-31T18:51:40.303Z,95.84
2023-03-31T18:56:41.715Z,96.11
2023-03-31T19:01:43.176Z,96.37
2023-03-31T19:06:44.596Z,96.65
2023-03-31T19:11:46.103Z,96.64
2023-03-31T19:16:47.596Z,96.25
2023-03-31T19:21:49.381Z,96.18
2023-03-31T19:26:51.114Z,95.97
2023-03-31T19:31:52.565Z,95.87
2023-03-31T19:36:54.772Z,96.12
2023-03-31T19:41:56.192Z,95.91
2023-03-31T19:46:58.518Z,96.35
2023-03-31T19:51:59.939Z,95.74
2023-03-31T19:57:01.489Z,95.98
2023-03-31T20:02:05.156Z,95.95
2023-03-31T20:07:06.696Z,95.75
2023-03-31T20:12:08.172Z,95.49
2023-03-31T20:17:10.693Z,95.74
2023-03-31T20:22:13.432Z,95.72
2023-03-31T20:27:14.945Z,95.52
2023-03-31T20:32:17.166Z,95.14
2023-03-31T20:37:19.250Z,95.80
2023-03-31T20:42:21.157Z,95.45
2023-03-31T20:47:22.637Z,95.57
2023-03-31T20:52:24.253Z,95.60
2023-03-31T20:57:26.364Z,95.93
2023-03-31T21:02:27.975Z,95.92
2023-03-31T21:07:29.651Z,95.68
2023-03-31T21:12:31.105Z,96.39
2023-03-31T21:17:32.657Z,96.04
2023-03-31T21:22:34.310Z,95.68
2023-03-31T21:27:35.926Z,95.71
2023-03-31T21:32:37.629Z,96.62
2023-03-31T21:37:39.417Z,95.68
2023-03-31T21:42:40.869Z,95.91
2023-03-31T21:47:42.356Z,95.52
2023-03-31T21:52:43.828Z,95.64
2023-03-31T21:57:45.689Z,95.65
2023-03-31T22:02:47.685Z,95.33
2023-03-31T22:07:49.185Z,95.09
2023-03-31T22:19:14.056Z,95.03
2023-03-31T22:24:15.989Z,94.40
2023-03-31T22:29:20.049Z,94.38
2023-03-31T22:34:21.561Z,94.45
2023-03-31T22:39:23.155Z,94.78
2023-03-31T22:44:24.544Z,93.86
2023-03-31T22:49:25.976Z,94.24
2023-03-31T22:54:27.553Z,94.44
2023-03-31T22:59:29.120Z,94.67
2023-03-31T23:04:31.230Z,94.34
2023-03-31T23:09:33.276Z,94.34
2023-03-31T23:14:34.900Z,94.04
2023-03-31T23:19:37.709Z,93.79
2023-03-31T23:24:39.124Z,94.55
2023-03-31T23:29:41.247Z,94.23
2023-03-31T23:34:43.425Z,94.69
2023-03-31T23:39:44.861Z,94.68
2023-03-31T23:44:46.508Z,94.47
2023-03-31T23:49:47.996Z,94.69
2023-03-31T23:54:49.437Z,94.64
2023-03-31T23:59:52.310Z,94.38
